Time;durP1;ratioP1;P1;durP2;ratioP2;P2;SDS_P1;SDS_P2;PMS_P1;PMS_P2;Temp;Humidity;BMP_temperature;BMP_pressure;BME280_temperature;BME280_humidity;BME280_pressure;Samples;Min_cycle;Max_cycle;Signal;HPM_P1;HPM_P2
2022/01/15 00:02:18;;;;;;;7.10;4.00;;;6.50;99.90;;;;;;5048506;28;20043;-68
2022/01/15 00:04:44;;;;;;;8.07;3.80;;;6.50;99.90;;;;;;5047290;28;20091;-66
2022/01/15 00:07:10;;;;;;;6.68;3.70;;;6.50;99.90;;;;;;5048014;28;20068;-66
2022/01/15 00:09:37;;;;;;;6.20;3.40;;;6.50;99.90;;;;;;5049203;28;20044;-66
2022/01/15 00:12:03;;;;;;;6.85;3.67;;;6.40;99.90;;;;;;5044961;28;20045;-66
2022/01/15 00:14:36;;;;;;;7.72;4.22;;;6.40;99.90;;;;;;5043603;28;20051;-67
2022/01/15 00:17:15;;;;;;;8.23;4.45;;;6.40;99.90;;;;;;5043567;28;20047;-65
2022/01/15 00:19:41;;;;;;;7.65;4.05;;;6.40;99.90;;;;;;5041363;28;20045;-65
2022/01/15 00:22:12;;;;;;;8.85;4.68;;;6.30;99.90;;;;;;5045382;28;20091;-65
2022/01/15 00:24:38;;;;;;;8.73;4.30;;;6.30;99.90;;;;;;5045962;28;20045;-67
2022/01/15 00:27:04;;;;;;;6.47;3.83;;;6.40;99.90;;;;;;5046449;28;20037;-67
2022/01/15 00:29:31;;;;;;;7.55;3.92;;;6.40;99.90;;;;;;5028366;28;20049;-66
2022/01/15 00:31:57;;;;;;;9.32;4.05;;;6.30;99.90;;;;;;5045218;28;20515;-68
2022/01/15 00:34:23;;;;;;;5.85;3.55;;;6.30;99.90;;;;;;5028224;28;20047;-67
2022/01/15 00:36:49;;;;;;;8.82;4.30;;;6.20;99.90;;;;;;5040914;28;20040;-67
2022/01/15 00:39:14;;;;;;;9.85;4.47;;;6.20;99.90;;;;;;5045181;28;20037;-68
2022/01/15 00:41:40;;;;;;;11.00;4.85;;;6.20;99.90;;;;;;5043260;28;20033;-67
2022/01/15 00:44:05;;;;;;;9.77;4.55;;;6.20;99.90;;;;;;5042004;28;20059;-70
2022/01/15 00:46:31;;;;;;;10.23;4.43;;;6.20;99.90;;;;;;5041763;28;20036;-67
2022/01/15 00:48:57;;;;;;;7.70;3.35;;;6.20;99.90;;;;;;5044229;28;22104;-68
2022/01/15 00:51:24;;;;;;;6.47;3.25;;;6.20;99.90;;;;;;5044699;28;20564;-70
2022/01/15 00:53:49;;;;;;;13.57;3.55;;;6.20;99.90;;;;;;5043776;28;20053;-67
2022/01/15 00:56:15;;;;;;;9.63;3.92;;;6.10;99.90;;;;;;5048164;28;20037;-65
2022/01/15 00:58:40;;;;;;;9.75;3.55;;;6.00;99.90;;;;;;5048712;28;20033;-67
2022/01/15 01:01:06;;;;;;;7.43;3.08;;;6.00;99.90;;;;;;5047844;28;20430;-67
2022/01/15 01:03:32;;;;;;;23.50;4.10;;;6.00;99.90;;;;;;5049555;28;20136;-67
2022/01/15 01:05:58;;;;;;;13.00;3.63;;;6.00;99.90;;;;;;5049199;28;20395;-66
2022/01/15 01:08:23;;;;;;;31.33;3.83;;;5.90;99.90;;;;;;5050400;28;20048;-67
2022/01/15 01:10:53;;;;;;;15.77;3.42;;;5.90;99.90;;;;;;5063433;28;20044;-67
2022/01/15 01:13:41;;;;;;;26.00;4.07;;;5.90;99.90;;;;;;5051405;28;20077;-67
2022/01/15 01:24:19;;;;;;;5.85;2.78;;;5.90;99.90;;;;;;5040706;28;20447;-67
2022/01/15 01:27:09;;;;;;;7.07;3.05;;;5.80;99.90;;;;;;5048431;28;20127;-68
2022/01/15 01:30:07;;;;;;;9.02;3.13;;;5.80;99.90;;;;;;5047461;28;20044;-67
2022/01/15 01:32:45;;;;;;;8.82;3.67;;;5.90;99.90;;;;;;5047159;28;20047;-66
2022/01/15 01:35:27;;;;;;;10.45;3.70;;;5.80;99.90;;;;;;5042754;28;20084;-67
2022/01/15 01:37:55;;;;;;;10.27;3.88;;;5.90;99.90;;;;;;5040268;28;20514;-68
2022/01/15 01:40:31;;;;;;;6.90;3.53;;;5.80;99.90;;;;;;5045826;28;20536;-67
2022/01/15 01:43:04;;;;;;;5.28;2.30;;;5.80;99.90;;;;;;5044875;28;20059;-67
2022/01/15 01:45:29;;;;;;;5.00;2.20;;;5.90;99.90;;;;;;5050813;28;20045;-67
2022/01/15 01:47:55;;;;;;;3.67;1.80;;;5.90;99.90;;;;;;5043615;28;20037;-66
2022/01/15 01:50:26;;;;;;;4.60;1.70;;;5.80;99.90;;;;;;5050267;28;20463;-67
2022/01/15 01:52:54;;;;;;;2.75;1.48;;;5.80;99.90;;;;;;5054851;28;20037;-66
2022/01/15 01:55:25;;;;;;;6.47;1.33;;;5.80;99.90;;;;;;5053730;28;20040;-66
2022/01/15 01:57:56;;;;;;;2.33;1.38;;;5.80;99.90;;;;;;5049002;28;20055;-67
2022/01/15 02:00:23;;;;;;;2.58;1.50;;;5.80;99.90;;;;;;5056018;28;20043;-67
2022/01/15 02:02:50;;;;;;;5.72;2.60;;;5.80;99.90;;;;;;5050909;28;20569;-67
2022/01/15 02:05:16;;;;;;;4.55;2.70;;;5.70;99.90;;;;;;5052642;28;20777;-66
2022/01/15 02:07:43;;;;;;;5.43;3.03;;;5.70;99.90;;;;;;5054812;28;20041;-66
2022/01/15 02:10:15;;;;;;;5.45;2.67;;;5.70;99.90;;;;;;5054402;28;20048;-66
2022/01/15 02:12:41;;;;;;;5.97;3.00;;;5.70;99.90;;;;;;5052937;28;20045;-66
2022/01/15 02:15:13;;;;;;;5.00;2.50;;;5.70;99.90;;;;;;5054967;28;20079;-66
2022/01/15 02:17:39;;;;;;;8.45;2.97;;;5.70;99.90;;;;;;5054918;28;20534;-68
2022/01/15 02:26:06;;;;;;;6.03;2.63;;;5.60;99.90;;;;;;5055336;28;20048;-67
2022/01/15 02:28:39;;;;;;;5.75;2.58;;;5.60;99.90;;;;;;5053053;28;20131;-67
2022/01/15 02:31:14;;;;;;;6.10;2.97;;;5.60;99.90;;;;;;5053249;28;20134;-67
2022/01/15 02:33:41;;;;;;;7.13;3.08;;;5.60;99.90;;;;;;5056044;28;20462;-69
2022/01/15 02:36:14;;;;;;;6.38;2.97;;;5.60;99.90;;;;;;5050459;28;20056;-67
2022/01/15 02:38:41;;;;;;;6.53;2.95;;;5.60;99.90;;;;;;5049424;28;20421;-67
2022/01/15 02:41:07;;;;;;;6.53;3.40;;;5.60;99.90;;;;;;5048186;28;20444;-69
2022/01/15 02:43:34;;;;;;;6.43;3.00;;;5.60;99.90;;;;;;5050246;28;20052;-68
2022/01/15 02:49:05;;;;;;;9.63;3.40;;;5.60;99.90;;;;;;4988890;28;20065;-68
2022/01/15 02:51:35;;;;;;;5.15;2.83;;;5.70;99.90;;;;;;5034787;28;20136;-67
2022/01/15 02:54:03;;;;;;;6.10;2.70;;;5.70;99.90;;;;;;5048263;28;20069;-67
2022/01/15 02:56:37;;;;;;;6.85;2.92;;;5.60;99.90;;;;;;5054001;28;20049;-67
2022/01/15 02:59:05;;;;;;;9.60;3.10;;;5.60;99.90;;;;;;5047350;28;20049;-67
2022/01/15 03:01:31;;;;;;;8.73;3.35;;;5.70;99.90;;;;;;5051214;28;20072;-67
2022/01/15 03:03:57;;;;;;;7.53;3.75;;;5.60;99.90;;;;;;5049583;28;20053;-67
2022/01/15 03:06:24;;;;;;;7.82;3.60;;;5.60;99.90;;;;;;5051305;28;20528;-66
2022/01/15 03:08:51;;;;;;;7.43;3.38;;;5.70;99.90;;;;;;5051790;28;20094;-66
2022/01/15 03:11:17;;;;;;;7.32;3.38;;;5.60;99.90;;;;;;5045303;28;20056;-67
2022/01/15 03:13:44;;;;;;;9.18;3.45;;;5.60;99.90;;;;;;5053588;28;20044;-67
2022/01/15 03:16:12;;;;;;;7.93;3.70;;;5.60;99.90;;;;;;5049164;28;20047;-66
2022/01/15 03:18:38;;;;;;;7.13;2.97;;;5.60;99.90;;;;;;5050876;28;20041;-67
2022/01/15 03:21:04;;;;;;;8.95;3.40;;;5.60;99.90;;;;;;5053249;28;20037;-66
2022/01/15 03:23:31;;;;;;;6.88;2.72;;;5.60;99.90;;;;;;5052319;28;20041;-67
2022/01/15 03:25:56;;;;;;;7.25;3.17;;;5.60;99.90;;;;;;5051658;28;20048;-67
2022/01/15 03:28:22;;;;;;;8.80;3.53;;;5.70;99.90;;;;;;5049000;28;20427;-67
2022/01/15 03:30:48;;;;;;;10.70;3.75;;;5.70;99.90;;;;;;5049020;28;20060;-68
2022/01/15 03:33:13;;;;;;;6.18;3.45;;;5.70;99.90;;;;;;5050655;28;20041;-66
2022/01/15 03:35:39;;;;;;;7.60;3.35;;;5.70;99.90;;;;;;5058989;28;20550;-66
2022/01/15 03:38:06;;;;;;;8.45;3.22;;;5.70;99.90;;;;;;5042995;28;20063;-69
2022/01/15 03:40:33;;;;;;;9.13;3.25;;;5.70;99.90;;;;;;5046848;28;20037;-66
2022/01/15 03:42:59;;;;;;;6.97;3.10;;;5.70;99.90;;;;;;5049056;28;20439;-67
2022/01/15 03:45:25;;;;;;;9.77;3.70;;;5.70;99.90;;;;;;5048216;28;20041;-67
2022/01/15 03:47:51;;;;;;;12.02;4.00;;;5.70;99.90;;;;;;5043925;28;20045;-66
2022/01/15 03:50:18;;;;;;;7.93;4.22;;;5.70;99.90;;;;;;5043524;28;20045;-67
2022/01/15 03:52:43;;;;;;;8.50;4.10;;;5.70;99.90;;;;;;5047240;28;20519;-66
2022/01/15 03:55:11;;;;;;;9.85;4.60;;;5.70;99.90;;;;;;5048448;28;20083;-66
2022/01/15 03:57:38;;;;;;;8.60;3.97;;;5.70;99.90;;;;;;5048573;28;20068;-66
2022/01/15 04:00:24;;;;;;;13.43;4.53;;;5.70;99.90;;;;;;5050071;28;20044;-67
2022/01/15 04:02:52;;;;;;;9.70;4.15;;;5.70;99.90;;;;;;5048678;28;20053;-68
2022/01/15 04:05:18;;;;;;;10.65;4.70;;;5.80;99.90;;;;;;5049622;28;20449;-66
2022/01/15 04:07:43;;;;;;;9.77;4.10;;;6.40;99.90;;;;;;5049255;28;20120;-67
2022/01/15 04:10:12;;;;;;;12.68;4.50;;;5.70;99.90;;;;;;5050500;28;20081;-66
2022/01/15 04:12:38;;;;;;;14.98;4.75;;;5.70;99.90;;;;;;5039947;28;20443;-67
2022/01/15 04:15:05;;;;;;;10.20;4.57;;;5.80;99.90;;;;;;5048157;28;20095;-66
2022/01/15 04:17:31;;;;;;;14.55;4.55;;;5.70;99.90;;;;;;5043363;28;20089;-67
2022/01/15 04:19:58;;;;;;;10.68;3.83;;;5.70;99.90;;;;;;5050990;28;20037;-68
2022/01/15 04:22:24;;;;;;;11.98;3.53;;;5.80;99.90;;;;;;5048114;28;20056;-66
2022/01/15 04:24:50;;;;;;;8.68;3.50;;;5.70;99.90;;;;;;5050782;28;20048;-66
2022/01/15 04:27:16;;;;;;;7.63;3.28;;;5.80;99.90;;;;;;5048119;28;20037;-67
2022/01/15 04:29:41;;;;;;;8.77;3.13;;;5.80;99.90;;;;;;5049091;28;20049;-67
2022/01/15 04:32:07;;;;;;;7.45;3.38;;;5.80;99.90;;;;;;5050293;28;20048;-67
2022/01/15 04:34:33;;;;;;;7.35;3.28;;;5.70;99.90;;;;;;5049979;28;20034;-67
2022/01/15 04:39:52;;;;;;;7.78;3.15;;;5.80;99.90;;;;;;5039127;28;20438;-66
2022/01/15 04:42:21;;;;;;;8.18;3.28;;;5.70;99.90;;;;;;5043124;28;20044;-67
2022/01/15 04:44:47;;;;;;;6.80;2.83;;;5.70;99.90;;;;;;5050147;28;20494;-67
2022/01/15 04:47:13;;;;;;;10.55;3.05;;;5.70;99.90;;;;;;5037318;28;20052;-67
2022/01/15 04:49:39;;;;;;;4.97;2.92;;;5.70;99.90;;;;;;5048263;28;20043;-68
2022/01/15 04:52:05;;;;;;;5.25;2.95;;;5.70;99.90;;;;;;5044086;28;20958;-66
2022/01/15 04:54:30;;;;;;;7.13;2.72;;;5.70;99.90;;;;;;5050901;28;20502;-67
2022/01/15 04:56:56;;;;;;;6.93;2.67;;;5.80;99.90;;;;;;5041814;28;20501;-67
2022/01/15 04:59:23;;;;;;;5.75;2.80;;;5.70;99.90;;;;;;5044113;28;20056;-67
2022/01/15 05:01:50;;;;;;;6.68;2.50;;;5.70;99.90;;;;;;5042032;28;20095;-68
2022/01/15 05:04:16;;;;;;;7.93;2.80;;;5.70;99.90;;;;;;5045256;28;20371;-66
2022/01/15 05:06:42;;;;;;;5.05;2.63;;;5.70;99.90;;;;;;5044109;28;20136;-67
2022/01/15 05:09:07;;;;;;;8.00;3.30;;;5.70;99.90;;;;;;5061521;28;20487;-66
2022/01/15 05:11:46;;;;;;;8.63;3.00;;;5.70;99.90;;;;;;5049551;28;20056;-67
2022/01/15 05:14:15;;;;;;;7.68;3.33;;;5.70;99.90;;;;;;5047852;28;20044;-68
2022/01/15 05:16:41;;;;;;;9.57;3.30;;;5.70;99.90;;;;;;5046606;28;20045;-68
2022/01/15 05:19:07;;;;;;;7.57;3.10;;;5.70;99.90;;;;;;5046986;28;20043;-67
2022/01/15 05:21:32;;;;;;;7.97;3.75;;;5.70;99.90;;;;;;5047927;28;20056;-68
2022/01/15 05:23:58;;;;;;;7.78;3.83;;;5.70;99.90;;;;;;5045404;28;20490;-66
2022/01/15 05:26:24;;;;;;;8.00;4.05;;;5.70;99.90;;;;;;5048307;28;20036;-66
2022/01/15 05:28:49;;;;;;;10.27;3.60;;;5.70;99.90;;;;;;5047624;28;20076;-67
2022/01/15 05:31:15;;;;;;;9.50;4.50;;;5.70;99.90;;;;;;5047589;28;20498;-67
2022/01/15 05:33:41;;;;;;;6.85;3.83;;;5.70;99.90;;;;;;5048287;28;20405;-67
2022/01/15 05:36:06;;;;;;;10.27;4.32;;;5.70;99.90;;;;;;5050550;28;20044;-67
2022/01/15 05:38:32;;;;;;;8.10;4.15;;;5.70;99.90;;;;;;5048316;28;20045;-66
2022/01/15 05:40:58;;;;;;;7.70;3.83;;;5.70;99.90;;;;;;5050265;28;20060;-66
2022/01/15 05:43:23;;;;;;;7.85;3.75;;;5.70;99.90;;;;;;5050304;28;20049;-66
2022/01/15 05:45:49;;;;;;;9.25;3.58;;;5.70;99.90;;;;;;5050104;28;20045;-67
2022/01/15 05:48:15;;;;;;;8.07;3.70;;;5.80;99.90;;;;;;5047662;28;20083;-67
2022/01/15 05:50:41;;;;;;;7.15;3.88;;;5.70;99.90;;;;;;5041325;28;20048;-67
2022/01/15 05:53:07;;;;;;;8.15;4.30;;;5.70;99.90;;;;;;5048424;28;20041;-66
2022/01/15 05:55:32;;;;;;;8.68;4.00;;;5.70;99.90;;;;;;5049291;28;20411;-67
2022/01/15 05:57:58;;;;;;;6.90;3.85;;;5.80;99.90;;;;;;5051070;28;20029;-67
2022/01/15 06:00:24;;;;;;;8.02;4.13;;;5.70;99.90;;;;;;5029622;28;20041;-68
2022/01/15 06:02:49;;;;;;;8.18;3.88;;;5.60;99.90;;;;;;5049702;28;20044;-66
2022/01/15 06:05:15;;;;;;;8.63;3.95;;;5.60;99.90;;;;;;5048103;28;20131;-66
2022/01/15 06:07:41;;;;;;;11.88;4.35;;;5.70;99.90;;;;;;5049690;28;20076;-67
2022/01/15 06:10:07;;;;;;;9.10;4.63;;;5.70;99.90;;;;;;5043331;28;20063;-67
2022/01/15 06:12:41;;;;;;;10.60;5.35;;;5.70;99.90;;;;;;5049972;28;20040;-67
2022/01/15 06:15:07;;;;;;;9.63;4.50;;;5.70;99.90;;;;;;5062608;28;20072;-68
2022/01/15 06:17:33;;;;;;;8.55;4.18;;;5.70;99.90;;;;;;5048615;28;20483;-67
2022/01/15 06:19:58;;;;;;;9.27;4.57;;;5.60;99.90;;;;;;5044374;28;20041;-66
2022/01/15 06:22:24;;;;;;;11.40;4.68;;;5.60;99.90;;;;;;5043076;28;20406;-66
2022/01/15 06:24:50;;;;;;;10.95;4.72;;;5.60;99.90;;;;;;5048014;28;20037;-67
2022/01/15 06:27:18;;;;;;;11.45;4.50;;;5.60;99.90;;;;;;5048115;28;20115;-67
2022/01/15 06:29:43;;;;;;;10.05;4.65;;;5.60;99.90;;;;;;5048309;28;20063;-66
2022/01/15 06:32:09;;;;;;;9.57;4.55;;;5.70;99.90;;;;;;5050151;28;20053;-66
2022/01/15 06:34:35;;;;;;;10.55;4.68;;;5.60;99.90;;;;;;5047520;28;20106;-67
2022/01/15 06:37:00;;;;;;;7.97;4.22;;;5.60;99.90;;;;;;5033083;28;20178;-67
2022/01/15 06:39:26;;;;;;;9.13;4.55;;;5.60;99.90;;;;;;5052154;28;20079;-67
2022/01/15 06:41:51;;;;;;;8.75;4.15;;;5.60;99.90;;;;;;5034341;28;20064;-67
2022/01/15 06:44:17;;;;;;;9.95;4.60;;;5.60;99.90;;;;;;5030866;28;20440;-67
2022/01/15 06:46:43;;;;;;;7.93;3.95;;;6.10;99.90;;;;;;5050774;28;20052;-68
2022/01/15 06:49:10;;;;;;;8.77;4.60;;;5.60;99.90;;;;;;5053065;28;20051;-66
2022/01/15 06:51:35;;;;;;;12.30;5.70;;;5.60;99.90;;;;;;5048428;28;20072;-67
2022/01/15 06:54:01;;;;;;;14.10;5.75;;;5.60;99.90;;;;;;5047771;28;20037;-67
2022/01/15 06:56:27;;;;;;;11.13;5.40;;;5.60;99.90;;;;;;5049115;28;20052;-67
2022/01/15 06:58:53;;;;;;;12.38;5.10;;;5.60;99.90;;;;;;5044011;28;20056;-66
2022/01/15 07:01:19;;;;;;;12.65;5.68;;;5.60;99.90;;;;;;5049932;28;20614;-66
2022/01/15 07:03:44;;;;;;;9.95;4.85;;;5.60;99.90;;;;;;5053000;28;20276;-68
2022/01/15 07:06:10;;;;;;;10.90;5.20;;;5.60;99.90;;;;;;5052282;28;20102;-66
2022/01/15 07:08:35;;;;;;;13.82;5.68;;;5.60;99.90;;;;;;5053023;28;20041;-66
2022/01/15 07:11:01;;;;;;;15.23;5.70;;;5.60;99.90;;;;;;5053265;28;20055;-66
2022/01/15 07:13:29;;;;;;;15.43;5.30;;;5.60;99.90;;;;;;5051800;28;20049;-67
2022/01/15 07:15:55;;;;;;;9.95;4.95;;;5.60;99.90;;;;;;5050029;28;20083;-66
2022/01/15 07:18:21;;;;;;;13.35;5.20;;;5.60;99.90;;;;;;5044115;28;20441;-67
2022/01/15 07:20:46;;;;;;;9.95;5.38;;;5.60;99.90;;;;;;5047374;28;20132;-67
2022/01/15 07:23:12;;;;;;;14.32;6.20;;;5.60;99.90;;;;;;5050690;28;20037;-67
2022/01/15 07:25:38;;;;;;;14.32;6.55;;;5.60;99.90;;;;;;5048516;28;20112;-67
2022/01/15 07:28:04;;;;;;;13.77;6.05;;;5.60;99.90;;;;;;5047708;28;20041;-67
2022/01/15 07:30:30;;;;;;;14.80;6.35;;;5.60;99.90;;;;;;5049072;28;20044;-68
2022/01/15 07:32:55;;;;;;;19.20;6.60;;;5.60;99.90;;;;;;5049856;28;20055;-66
2022/01/15 07:35:21;;;;;;;13.52;6.22;;;5.50;99.90;;;;;;5049374;28;20063;-65
2022/01/15 07:37:46;;;;;;;13.48;5.85;;;5.60;99.90;;;;;;5051020;28;20052;-66
2022/01/15 07:40:12;;;;;;;11.82;5.47;;;5.60;99.90;;;;;;5049342;28;20098;-67
2022/01/15 07:42:40;;;;;;;9.77;5.20;;;5.50;99.90;;;;;;5049022;28;20527;-66
2022/01/15 07:45:09;;;;;;;11.15;4.68;;;5.50;99.90;;;;;;5052360;28;20414;-67
2022/01/15 07:47:34;;;;;;;;;;;5.50;99.90;;;;;;5046466;28;20088;-66
2022/01/15 07:50:01;;;;;;;8.75;4.57;;;5.50;99.90;;;;;;5045805;28;19971;-67
2022/01/15 07:52:26;;;;;;;10.48;4.57;;;5.50;99.90;;;;;;5047398;28;20053;-66
2022/01/15 07:54:52;;;;;;;9.23;4.38;;;5.50;99.90;;;;;;5047673;28;20051;-66
2022/01/15 07:57:18;;;;;;;13.05;4.30;;;5.50;99.90;;;;;;5046795;28;20137;-68
2022/01/15 07:59:44;;;;;;;10.45;4.25;;;5.50;99.90;;;;;;5041225;28;20139;-68
2022/01/15 08:02:09;;;;;;;9.13;4.38;;;5.50;99.90;;;;;;5044309;28;20770;-67
2022/01/15 08:04:35;;;;;;;8.10;4.10;;;5.50;99.90;;;;;;5042321;28;20098;-66
2022/01/15 08:07:00;;;;;;;8.50;4.30;;;5.50;99.90;;;;;;5043629;28;20149;-66
2022/01/15 08:09:26;;;;;;;9.02;4.20;;;5.50;99.90;;;;;;5046673;28;20386;-66
2022/01/15 08:11:51;;;;;;;8.90;4.47;;;5.50;99.90;;;;;;5051603;28;20052;-66
2022/01/15 08:14:17;;;;;;;7.80;4.18;;;5.50;99.90;;;;;;5039289;28;20083;-68
2022/01/15 08:16:43;;;;;;;9.23;4.22;;;5.50;99.90;;;;;;5050383;28;20045;-68
2022/01/15 08:19:08;;;;;;;11.60;4.43;;;5.50;99.90;;;;;;5047339;28;20391;-66
2022/01/15 08:21:34;;;;;;;6.85;3.63;;;5.50;99.90;;;;;;5032617;28;20686;-66
2022/01/15 08:24:00;;;;;;;7.22;3.83;;;5.50;99.90;;;;;;5049449;28;20041;-66
2022/01/15 08:26:25;;;;;;;7.55;4.38;;;5.50;99.90;;;;;;5050069;28;20041;-67
2022/01/15 08:28:51;;;;;;;8.98;4.32;;;5.50;99.90;;;;;;5047869;28;20059;-66
2022/01/15 08:31:16;;;;;;;9.40;4.20;;;5.50;99.90;;;;;;5043107;28;20045;-65
2022/01/15 08:33:42;;;;;;;11.02;3.97;;;7.10;99.90;;;;;;5047113;28;20041;-67
2022/01/15 08:36:08;;;;;;;7.40;3.83;;;5.50;99.90;;;;;;5048726;28;20072;-67
2022/01/15 08:38:34;;;;;;;7.15;3.78;;;5.50;99.90;;;;;;5048830;28;20041;-67
2022/01/15 08:40:59;;;;;;;6.90;3.90;;;5.50;99.90;;;;;;5047504;28;20124;-70
2022/01/15 08:43:25;;;;;;;7.32;3.75;;;5.50;99.90;;;;;;5039490;28;20540;-68
2022/01/15 08:45:51;;;;;;;7.25;3.92;;;5.50;99.90;;;;;;5042667;28;20044;-68
2022/01/15 08:48:19;;;;;;;8.25;3.85;;;5.50;99.90;;;;;;5042195;28;20076;-67
2022/01/15 08:50:48;;;;;;;;;;;5.50;99.90;;;;;;5045606;28;20088;-66
2022/01/15 08:53:16;;;;;;;7.57;3.92;;;5.50;99.90;;;;;;5047721;28;19920;-67
2022/01/15 08:55:45;;;;;;;7.95;4.07;;;5.50;99.90;;;;;;5046643;28;20144;-66
2022/01/15 08:58:11;;;;;;;8.60;4.20;;;5.50;99.90;;;;;;5041685;28;20466;-66
2022/01/15 09:00:38;;;;;;;7.88;4.30;;;5.50;99.90;;;;;;5040383;28;20155;-66
2022/01/15 09:03:06;;;;;;;8.43;4.45;;;5.50;99.90;;;;;;5045160;28;20041;-67
2022/01/15 09:05:34;;;;;;;9.18;4.53;;;5.50;99.90;;;;;;5044993;28;20495;-67
2022/01/15 09:08:00;;;;;;;11.50;4.57;;;5.50;99.90;;;;;;5044324;28;20049;-67
2022/01/15 09:10:25;;;;;;;10.25;4.47;;;5.50;99.90;;;;;;5044964;28;20044;-66
2022/01/15 09:12:51;;;;;;;9.88;4.90;;;5.50;99.90;;;;;;5047251;28;20033;-66
2022/01/15 09:15:18;;;;;;;11.63;4.85;;;5.50;99.90;;;;;;5044760;28;20049;-66
2022/01/15 09:17:44;;;;;;;8.55;4.13;;;5.50;99.90;;;;;;5047376;28;20059;-67
2022/01/15 09:20:11;;;;;;;8.98;4.40;;;5.50;99.90;;;;;;5047030;28;20029;-66
2022/01/15 09:22:36;;;;;;;10.50;4.05;;;5.50;99.90;;;;;;5045981;28;20391;-67
2022/01/15 09:25:03;;;;;;;6.88;3.97;;;5.50;99.90;;;;;;5046488;28;20045;-66
2022/01/15 09:30:13;;;;;;;4.60;2.80;;;5.60;99.90;;;;;;5045783;28;20436;-67
2022/01/15 09:32:48;;;;;;;12.60;3.40;;;5.60;99.90;;;;;;5047108;28;20052;-67
2022/01/15 09:35:17;;;;;;;6.00;3.25;;;5.60;99.90;;;;;;5047021;28;20056;-67
2022/01/15 09:37:42;;;;;;;;;;;5.60;99.90;;;;;;5049410;28;20041;-67
2022/01/15 09:40:09;;;;;;;7.63;3.10;;;5.50;99.90;;;;;;5047762;28;19935;-67
2022/01/15 09:42:38;;;;;;;4.85;3.00;;;5.50;99.90;;;;;;5050509;28;20463;-66
2022/01/15 09:45:04;;;;;;;7.85;3.40;;;5.50;99.90;;;;;;5045472;28;20478;-66
2022/01/15 09:47:32;;;;;;;6.78;3.20;;;5.50;99.90;;;;;;5041813;28;20114;-66
2022/01/15 09:49:58;;;;;;;6.70;3.10;;;5.50;99.90;;;;;;5050330;28;20052;-67
2022/01/15 09:52:24;;;;;;;6.68;3.42;;;5.50;99.90;;;;;;5049003;28;20499;-66
2022/01/15 09:54:50;;;;;;;9.93;3.70;;;5.60;99.90;;;;;;5046873;28;20052;-66
2022/01/15 09:57:17;;;;;;;7.05;4.05;;;5.60;99.90;;;;;;5048866;28;20049;-67
2022/01/15 09:59:43;;;;;;;9.45;5.10;;;5.60;99.90;;;;;;5049022;28;20041;-67
2022/01/15 10:02:09;;;;;;;11.07;6.03;;;5.60;99.90;;;;;;5050452;28;20116;-66
2022/01/15 10:04:35;;;;;;;9.75;5.50;;;5.60;99.90;;;;;;5050891;28;20043;-65
2022/01/15 10:07:15;;;;;;;16.05;6.70;;;5.70;99.90;;;;;;5051241;28;20076;-66
2022/01/15 10:09:42;;;;;;;13.32;7.10;;;5.60;99.90;;;;;;5051345;28;20041;-67
2022/01/15 10:12:08;;;;;;;13.02;6.95;;;5.80;99.90;;;;;;5051315;28;20045;-66
2022/01/15 10:14:36;;;;;;;15.20;7.25;;;5.60;99.90;;;;;;5048636;28;20116;-67
2022/01/15 10:17:18;;;;;;;;;;;5.60;99.90;;;;;;5055129;28;20045;-67
2022/01/15 10:19:43;;;;;;;15.63;7.40;;;5.60;99.90;;;;;;5055465;28;19921;-66
2022/01/15 10:22:16;;;;;;;14.77;7.70;;;5.60;99.90;;;;;;5054433;28;20556;-67
2022/01/15 10:24:50;;;;;;;12.60;6.65;;;5.60;99.90;;;;;;5053682;28;20443;-66
2022/01/15 10:27:28;;;;;;;12.98;7.07;;;5.60;99.90;;;;;;5053132;28;20037;-66
2022/01/15 10:30:00;;;;;;;18.73;7.80;;;5.60;99.90;;;;;;5051109;28;20048;-67
2022/01/15 10:32:28;;;;;;;15.68;7.63;;;5.70;99.90;;;;;;5050864;28;20896;-68
2022/01/15 10:34:55;;;;;;;18.90;8.18;;;5.60;99.90;;;;;;5017448;28;20056;-66
2022/01/15 10:37:24;;;;;;;18.35;8.77;;;5.70;99.90;;;;;;5051701;28;20063;-68
2022/01/15 10:39:59;;;;;;;19.45;9.85;;;5.70;99.90;;;;;;5054114;28;20044;-66
2022/01/15 10:42:26;;;;;;;19.90;9.98;;;5.70;99.90;;;;;;5053428;28;20048;-67
2022/01/15 10:44:57;;;;;;;18.85;9.88;;;5.80;99.90;;;;;;5054369;28;20048;-67
2022/01/15 10:47:26;;;;;;;21.52;9.63;;;5.70;99.90;;;;;;5051414;28;20091;-67
2022/01/15 10:49:52;;;;;;;16.92;9.00;;;5.70;99.90;;;;;;5051599;28;20052;-67
2022/01/15 10:52:23;;;;;;;19.98;9.52;;;5.80;99.90;;;;;;5035122;28;20087;-67
2022/01/15 10:55:04;;;;;;;18.92;8.20;;;5.80;99.90;;;;;;5041020;28;20037;-67
2022/01/15 10:57:52;;;;;;;15.40;8.00;;;5.80;99.90;;;;;;5051179;28;20079;-67
2022/01/15 11:00:24;;;;;;;16.02;7.93;;;5.80;99.90;;;;;;5049819;28;20048;-66
2022/01/15 11:02:53;;;;;;;13.38;7.18;;;5.80;99.90;;;;;;5045951;28;20376;-66
2022/01/15 11:05:29;;;;;;;17.80;8.52;;;5.80;99.90;;;;;;5044113;28;20045;-65
2022/01/15 11:08:14;;;;;;;15.63;7.82;;;5.80;99.90;;;;;;5053125;28;20051;-66
2022/01/15 11:11:05;;;;;;;13.90;7.72;;;5.80;99.90;;;;;;5052934;28;20045;-66
2022/01/15 11:13:37;;;;;;;18.27;8.85;;;5.80;99.90;;;;;;5047928;28;20040;-65
2022/01/15 11:16:14;;;;;;;17.55;8.60;;;5.80;99.90;;;;;;5057572;28;20041;-65
2022/01/15 11:18:42;;;;;;;17.63;8.52;;;5.80;99.90;;;;;;5054057;28;20040;-66
2022/01/15 11:21:10;;;;;;;20.20;11.27;;;5.70;99.90;;;;;;5048355;28;20077;-66
2022/01/15 11:23:38;;;;;;;18.02;10.18;;;5.70;99.90;;;;;;5052439;28;20119;-66
2022/01/15 11:26:23;;;;;;;17.17;8.98;;;5.80;99.90;;;;;;5050663;28;20143;-64
2022/01/15 11:28:49;;;;;;;17.13;9.18;;;5.80;99.90;;;;;;5051964;28;20491;-65
2022/01/15 11:31:23;;;;;;;18.13;9.00;;;5.80;99.90;;;;;;5051753;28;20056;-65
2022/01/15 11:33:51;;;;;;;18.20;8.63;;;5.80;99.90;;;;;;5039441;28;20049;-66
2022/01/15 11:36:29;;;;;;;;;;;5.80;99.90;;;;;;5052276;28;20052;-66
2022/01/15 11:38:54;;;;;;;20.17;9.02;;;5.90;99.90;;;;;;5051105;28;20283;-66
2022/01/15 11:41:37;;;;;;;20.10;9.90;;;5.90;99.90;;;;;;5053421;28;20086;-65
2022/01/15 11:44:04;;;;;;;22.00;10.00;;;5.90;99.90;;;;;;5053231;28;20048;-66
2022/01/15 11:46:38;;;;;;;19.55;10.30;;;5.90;99.90;;;;;;5051749;28;20166;-65
2022/01/15 11:49:26;;;;;;;18.63;9.57;;;5.90;99.90;;;;;;5066114;28;20045;-65
2022/01/15 11:51:53;;;;;;;21.35;11.07;;;5.90;99.90;;;;;;5051861;28;20564;-65
2022/01/15 11:54:18;;;;;;;23.63;11.20;;;5.90;99.90;;;;;;5050644;28;20071;-65
2022/01/15 11:56:46;;;;;;;19.45;10.57;;;5.80;99.90;;;;;;5051952;28;20086;-67
2022/01/15 11:59:33;;;;;;;22.92;10.90;;;5.90;99.90;;;;;;5052364;28;20060;-65
2022/01/15 12:02:05;;;;;;;21.45;11.27;;;5.90;99.90;;;;;;5044520;28;20495;-66
2022/01/15 12:04:37;;;;;;;29.95;12.20;;;6.10;99.90;;;;;;5050250;28;20051;-66
2022/01/15 12:07:03;;;;;;;23.48;11.88;;;5.80;99.90;;;;;;5052058;28;20040;-66
2022/01/15 12:09:42;;;;;;;27.15;11.70;;;5.90;99.90;;;;;;5051474;28;20506;-67
2022/01/15 12:12:20;;;;;;;;;;;5.80;99.90;;;;;;5051743;28;20101;-68
2022/01/15 12:14:51;;;;;;;23.50;12.60;;;5.80;99.90;;;;;;5046505;28;19925;-68
2022/01/15 12:17:26;;;;;;;23.27;12.52;;;5.80;99.90;;;;;;5036970;28;20395;-66
2022/01/15 12:19:53;;;;;;;23.77;12.10;;;5.80;99.90;;;;;;5042189;28;20088;-66
2022/01/15 12:22:39;;;;;;;19.90;10.95;;;5.80;99.90;;;;;;5051433;28;20045;-66
2022/01/15 12:25:12;;;;;;;34.47;16.58;;;5.80;99.90;;;;;;5050284;28;20403;-66
2022/01/15 12:27:39;;;;;;;23.95;13.77;;;5.70;99.90;;;;;;5050830;28;20051;-65
2022/01/15 12:30:22;;;;;;;21.77;11.43;;;5.70;99.90;;;;;;5051093;28;20403;-65
2022/01/15 12:32:50;;;;;;;20.33;11.93;;;5.70;99.90;;;;;;5048449;28;20280;-66
2022/01/15 12:35:22;;;;;;;;;;;5.60;99.90;;;;;;5051592;28;20167;-66
2022/01/15 12:38:05;;;;;;;23.42;12.00;;;5.60;99.90;;;;;;5052368;28;20014;-67
2022/01/15 12:40:36;;;;;;;25.45;12.68;;;5.60;99.90;;;;;;5050158;28;20055;-67
2022/01/15 12:43:16;;;;;;;20.70;11.68;;;5.60;99.90;;;;;;5050488;28;20052;-67
2022/01/15 12:45:45;;;;;;;21.73;12.90;;;5.60;99.90;;;;;;5040609;28;20055;-66
2022/01/15 12:48:14;;;;;;;;;;;5.60;99.90;;;;;;5046378;28;20053;-66
2022/01/15 12:50:48;;;;;;;24.07;12.73;;;5.50;99.90;;;;;;5048188;28;20371;-66
2022/01/15 12:53:15;;;;;;;20.67;11.75;;;5.50;99.90;;;;;;5051795;28;20299;-67
2022/01/15 12:55:41;;;;;;;25.20;14.35;;;5.50;99.90;;;;;;5064843;28;20041;-65
2022/01/15 12:58:08;;;;;;;23.65;13.75;;;5.50;99.90;;;;;;5043367;28;20487;-67
2022/01/15 13:00:36;;;;;;;26.35;13.32;;;5.50;99.90;;;;;;5048101;28;20701;-65
2022/01/15 13:03:07;;;;;;;24.48;12.82;;;5.50;99.90;;;;;;5050810;28;20112;-63
2022/01/15 13:05:41;;;;;;;26.20;14.07;;;5.50;99.90;;;;;;5048359;28;20084;-68
2022/01/15 13:08:15;;;;;;;27.00;15.02;;;5.40;99.90;;;;;;5044904;28;20044;-66
2022/01/15 13:11:39;;;;;;;24.83;13.70;;;5.40;99.90;;;;;;5048811;28;20057;-67
2022/01/15 13:13:39;;;;;;;26.38;14.82;;;5.40;99.90;;;;;;5034491;28;20403;-66
2022/01/15 13:16:30;;;;;;;26.63;15.52;;;5.30;99.90;;;;;;5053700;28;20049;-66
2022/01/15 13:19:06;;;;;;;26.52;15.35;;;5.30;99.90;;;;;;5056075;28;20048;-66
2022/01/15 13:21:34;;;;;;;27.92;15.10;;;5.30;99.90;;;;;;5045715;28;20483;-65
2022/01/15 13:24:10;;;;;;;25.23;13.60;;;5.30;99.90;;;;;;5051067;28;20044;-66